sensor_id;sensor_type;location;lat;lon;timestamp;pressure;altitude;pressure_sealevel;temperature;humidity
28004;BME280;15330;51.234;6.754;2023-09-12T00:01:59;100678.59;;;22.97;82.61
28004;BME280;15330;51.234;6.754;2023-09-12T00:04:25;100680.75;;;23.12;82.36
28004;BME280;15330;51.234;6.754;2023-09-12T00:06:50;100682.06;;;23.10;82.56
28004;BME280;15330;51.234;6.754;2023-09-12T00:09:16;100685.72;;;23.15;81.92
28004;BME280;15330;51.234;6.754;2023-09-12T00:11:41;100693.97;;;23.20;82.39
28004;BME280;15330;51.234;6.754;2023-09-12T00:14:08;100700.50;;;23.19;82.05
28004;BME280;15330;51.234;6.754;2023-09-12T00:16:34;100696.53;;;23.10;83.02
28004;BME280;15330;51.234;6.754;2023-09-12T00:18:59;100693.69;;;23.05;83.92
28004;BME280;15330;51.234;6.754;2023-09-12T00:21:24;100672.59;;;22.67;85.70
28004;BME280;15330;51.234;6.754;2023-09-12T00:23:50;100657.41;;;22.43;87.50
28004;BME280;15330;51.234;6.754;2023-09-12T00:26:15;100641.41;;;21.89;90.71
28004;BME280;15330;51.234;6.754;2023-09-12T00:28:41;100618.00;;;21.65;93.04
28004;BME280;15330;51.234;6.754;2023-09-12T00:31:06;100600.91;;;21.81;92.65
28004;BME280;15330;51.234;6.754;2023-09-12T00:33:32;100588.66;;;22.07;90.97
28004;BME280;15330;51.234;6.754;2023-09-12T00:35:57;100571.31;;;22.13;90.49
28004;BME280;15330;51.234;6.754;2023-09-12T00:38:23;100573.56;;;22.16;90.78
28004;BME280;15330;51.234;6.754;2023-09-12T00:40:48;100574.09;;;22.30;89.53
28004;BME280;15330;51.234;6.754;2023-09-12T00:43:13;100596.25;;;22.50;89.08
28004;BME280;15330;51.234;6.754;2023-09-12T00:45:39;100604.47;;;22.55;88.61
28004;BME280;15330;51.234;6.754;2023-09-12T00:48:05;100611.03;;;22.71;87.45
28004;BME280;15330;51.234;6.754;2023-09-12T00:50:32;100609.78;;;22.62;87.66
28004;BME280;15330;51.234;6.754;2023-09-12T00:52:59;100612.84;;;22.65;88.27
28004;BME280;15330;51.234;6.754;2023-09-12T00:55:26;100605.81;;;22.69;87.80
28004;BME280;15330;51.234;6.754;2023-09-12T00:57:52;100614.69;;;22.77;87.37
28004;BME280;15330;51.234;6.754;2023-09-12T01:00:18;100605.25;;;22.22;89.96
28004;BME280;15330;51.234;6.754;2023-09-12T01:02:44;100598.38;;;22.31;89.68
28004;BME280;15330;51.234;6.754;2023-09-12T01:05:12;100604.66;;;22.32;89.13
28004;BME280;15330;51.234;6.754;2023-09-12T01:07:38;100618.03;;;22.50;88.50
28004;BME280;15330;51.234;6.754;2023-09-12T01:10:05;100630.16;;;22.43;88.77
28004;BME280;15330;51.234;6.754;2023-09-12T01:12:31;100619.59;;;22.46;89.36
28004;BME280;15330;51.234;6.754;2023-09-12T01:14:56;100610.16;;;22.37;90.16
28004;BME280;15330;51.234;6.754;2023-09-12T01:17:23;100603.06;;;22.19;91.37
28004;BME280;15330;51.234;6.754;2023-09-12T01:19:49;100612.88;;;22.20;91.46
28004;BME280;15330;51.234;6.754;2023-09-12T01:27:48;100641.03;;;22.26;90.05
28004;BME280;15330;51.234;6.754;2023-09-12T01:30:18;100645.94;;;22.41;88.75
28004;BME280;15330;51.234;6.754;2023-09-12T01:32:44;100651.25;;;22.47;88.21
28004;BME280;15330;51.234;6.754;2023-09-12T01:35:09;100646.38;;;22.49;87.98
28004;BME280;15330;51.234;6.754;2023-09-12T01:37:35;100646.47;;;22.26;89.23
28004;BME280;15330;51.234;6.754;2023-09-12T01:40:01;100623.97;;;22.30;88.87
28004;BME280;15330;51.234;6.754;2023-09-12T01:42:31;100622.50;;;22.40;88.20
28004;BME280;15330;51.234;6.754;2023-09-12T01:45:01;100622.09;;;22.48;87.87
28004;BME280;15330;51.234;6.754;2023-09-12T01:47:28;100624.44;;;22.27;89.25
28004;BME280;15330;51.234;6.754;2023-09-12T01:49:56;100607.44;;;22.37;88.70
28004;BME280;15330;51.234;6.754;2023-09-12T01:52:23;100596.78;;;22.19;89.10
28004;BME280;15330;51.234;6.754;2023-09-12T01:54:50;100592.09;;;22.03;89.98
28004;BME280;15330;51.234;6.754;2023-09-12T01:57:17;100594.88;;;22.19;89.08
28004;BME280;15330;51.234;6.754;2023-09-12T01:59:46;100591.31;;;22.19;88.94
28004;BME280;15330;51.234;6.754;2023-09-12T02:02:12;100604.16;;;22.07;89.06
28004;BME280;15330;51.234;6.754;2023-09-12T02:04:37;100608.31;;;22.09;89.09
28004;BME280;15330;51.234;6.754;2023-09-12T02:07:03;100613.97;;;22.36;87.63
28004;BME280;15330;51.234;6.754;2023-09-12T02:09:28;100601.50;;;22.40;87.41
28004;BME280;15330;51.234;6.754;2023-09-12T02:11:54;100603.91;;;21.80;89.82
28004;BME280;15330;51.234;6.754;2023-09-12T02:14:19;100617.88;;;22.12;87.79
28004;BME280;15330;51.234;6.754;2023-09-12T02:16:44;100633.44;;;22.28;87.47
28004;BME280;15330;51.234;6.754;2023-09-12T02:19:10;100633.16;;;22.41;86.76
28004;BME280;15330;51.234;6.754;2023-09-12T02:21:36;100649.56;;;22.29;87.39
28004;BME280;15330;51.234;6.754;2023-09-12T02:24:01;100646.13;;;21.82;89.95
28004;BME280;15330;51.234;6.754;2023-09-12T02:26:26;100639.22;;;22.03;88.77
28004;BME280;15330;51.234;6.754;2023-09-12T02:28:52;100637.69;;;21.95;89.13
28004;BME280;15330;51.234;6.754;2023-09-12T02:31:17;100640.56;;;22.01;88.21
28004;BME280;15330;51.234;6.754;2023-09-12T02:33:42;100631.25;;;22.13;87.72
28004;BME280;15330;51.234;6.754;2023-09-12T02:36:08;100639.09;;;22.10;87.98
28004;BME280;15330;51.234;6.754;2023-09-12T02:38:33;100634.03;;;22.30;86.90
28004;BME280;15330;51.234;6.754;2023-09-12T02:40:59;100629.72;;;22.34;87.33
28004;BME280;15330;51.234;6.754;2023-09-12T02:43:24;100626.44;;;22.04;88.61
28004;BME280;15330;51.234;6.754;2023-09-12T02:45:50;100622.88;;;22.03;88.40
28004;BME280;15330;51.234;6.754;2023-09-12T02:48:15;100599.72;;;21.89;89.22
28004;BME280;15330;51.234;6.754;2023-09-12T02:50:41;100594.03;;;21.90;88.71
28004;BME280;15330;51.234;6.754;2023-09-12T02:53:06;100586.41;;;21.92;88.89
28004;BME280;15330;51.234;6.754;2023-09-12T02:55:32;100598.50;;;21.96;88.71
28004;BME280;15330;51.234;6.754;2023-09-12T02:57:57;100609.00;;;21.76;89.99
28004;BME280;15330;51.234;6.754;2023-09-12T03:00:23;100604.75;;;22.09;88.54
28004;BME280;15330;51.234;6.754;2023-09-12T03:02:48;100606.47;;;21.98;89.17
28004;BME280;15330;51.234;6.754;2023-09-12T03:05:13;100616.72;;;22.08;88.64
28004;BME280;15330;51.234;6.754;2023-09-12T03:07:39;100596.81;;;22.07;88.22
28004;BME280;15330;51.234;6.754;2023-09-12T03:10:07;100593.53;;;21.93;89.18
28004;BME280;15330;51.234;6.754;2023-09-12T03:12:33;100595.75;;;22.08;89.14
28004;BME280;15330;51.234;6.754;2023-09-12T03:15:00;100596.97;;;22.01;89.81
28004;BME280;15330;51.234;6.754;2023-09-12T03:17:28;100589.38;;;22.03;88.97
28004;BME280;15330;51.234;6.754;2023-09-12T03:19:53;100590.00;;;21.81;90.37
28004;BME280;15330;51.234;6.754;2023-09-12T03:22:18;100582.03;;;21.63;91.63
28004;BME280;15330;51.234;6.754;2023-09-12T03:24:44;100580.34;;;21.74;90.87
28004;BME280;15330;51.234;6.754;2023-09-12T03:27:10;100580.88;;;21.87;90.40
28004;BME280;15330;51.234;6.754;2023-09-12T03:29:35;100581.09;;;21.97;90.10
28004;BME280;15330;51.234;6.754;2023-09-12T03:32:01;100574.91;;;22.02;89.78
28004;BME280;15330;51.234;6.754;2023-09-12T03:34:26;100566.53;;;21.92;90.23
28004;BME280;15330;51.234;6.754;2023-09-12T03:36:51;100568.81;;;21.55;92.75
28004;BME280;15330;51.234;6.754;2023-09-12T03:39:17;100550.94;;;21.59;92.75
28004;BME280;15330;51.234;6.754;2023-09-12T03:41:42;100555.44;;;21.82;92.17
28004;BME280;15330;51.234;6.754;2023-09-12T03:44:07;100543.25;;;21.84;91.71
28004;BME280;15330;51.234;6.754;2023-09-12T03:46:33;100540.28;;;21.57;92.36
28004;BME280;15330;51.234;6.754;2023-09-12T03:49:00;100540.28;;;21.86;91.77
28004;BME280;15330;51.234;6.754;2023-09-12T03:51:25;100545.22;;;22.01;90.89
28004;BME280;15330;51.234;6.754;2023-09-12T03:53:51;100548.84;;;22.06;89.21
28004;BME280;15330;51.234;6.754;2023-09-12T03:56:16;100548.09;;;21.82;90.88
28004;BME280;15330;51.234;6.754;2023-09-12T03:58:45;100543.00;;;21.86;91.65
28004;BME280;15330;51.234;6.754;2023-09-12T04:01:10;100546.44;;;21.81;91.83
28004;BME280;15330;51.234;6.754;2023-09-12T04:03:35;100542.00;;;21.75;92.02
28004;BME280;15330;51.234;6.754;2023-09-12T04:06:01;100539.22;;;21.87;90.92
28004;BME280;15330;51.234;6.754;2023-09-12T04:08:27;100524.97;;;21.68;91.94
28004;BME280;15330;51.234;6.754;2023-09-12T04:10:52;100518.28;;;21.59;92.58
28004;BME280;15330;51.234;6.754;2023-09-12T04:13:17;100514.03;;;21.80;91.38
28004;BME280;15330;51.234;6.754;2023-09-12T04:15:43;100521.97;;;21.41;92.26
28004;BME280;15330;51.234;6.754;2023-09-12T04:18:08;100510.88;;;21.31;92.44
28004;BME280;15330;51.234;6.754;2023-09-12T04:20:33;100519.00;;;21.54;91.64
28004;BME280;15330;51.234;6.754;2023-09-12T04:23:02;100525.63;;;21.58;90.98
28004;BME280;15330;51.234;6.754;2023-09-12T04:25:28;100523.16;;;21.74;90.26
28004;BME280;15330;51.234;6.754;2023-09-12T04:27:53;100513.50;;;21.66;89.27
28004;BME280;15330;51.234;6.754;2023-09-12T04:30:19;100520.16;;;20.95;93.26
28004;BME280;15330;51.234;6.754;2023-09-12T04:32:44;100530.44;;;21.05;92.52
28004;BME280;15330;51.234;6.754;2023-09-12T04:35:09;100538.06;;;21.43;90.91
28004;BME280;15330;51.234;6.754;2023-09-12T04:37:35;100541.25;;;21.40;90.10
28004;BME280;15330;51.234;6.754;2023-09-12T04:40:01;100539.03;;;21.77;88.54
28004;BME280;15330;51.234;6.754;2023-09-12T04:42:26;100543.56;;;22.00;87.79
28004;BME280;15330;51.234;6.754;2023-09-12T04:44:51;100544.81;;;22.09;86.79
28004;BME280;15330;51.234;6.754;2023-09-12T04:47:17;100552.00;;;22.15;86.76
28004;BME280;15330;51.234;6.754;2023-09-12T04:49:43;100548.03;;;22.22;86.16
28004;BME280;15330;51.234;6.754;2023-09-12T04:52:09;100545.66;;;22.26;85.84
28004;BME280;15330;51.234;6.754;2023-09-12T04:54:37;100534.41;;;22.22;85.66
28004;BME280;15330;51.234;6.754;2023-09-12T04:57:03;100537.59;;;22.31;85.54
28004;BME280;15330;51.234;6.754;2023-09-12T04:59:28;100523.94;;;22.48;84.72
28004;BME280;15330;51.234;6.754;2023-09-12T05:01:53;100517.91;;;22.46;84.52
28004;BME280;15330;51.234;6.754;2023-09-12T05:04:19;100510.56;;;22.46;84.69
28004;BME280;15330;51.234;6.754;2023-09-12T05:06:45;100537.75;;;22.41;85.03
28004;BME280;15330;51.234;6.754;2023-09-12T05:09:10;100546.09;;;22.51;84.78
28004;BME280;15330;51.234;6.754;2023-09-12T05:11:36;100568.81;;;22.40;86.12
28004;BME280;15330;51.234;6.754;2023-09-12T05:14:01;100560.28;;;22.53;85.42
28004;BME280;15330;51.234;6.754;2023-09-12T05:16:29;100576.22;;;22.45;85.79
28004;BME280;15330;51.234;6.754;2023-09-12T05:18:54;100580.03;;;22.44;86.19
28004;BME280;15330;51.234;6.754;2023-09-12T05:21:20;100578.19;;;22.32;87.21
28004;BME280;15330;51.234;6.754;2023-09-12T05:23:45;100584.56;;;22.38;87.40
28004;BME280;15330;51.234;6.754;2023-09-12T05:26:10;100589.13;;;22.49;86.37
28004;BME280;15330;51.234;6.754;2023-09-12T05:28:36;100592.16;;;22.36;87.67
28004;BME280;15330;51.234;6.754;2023-09-12T05:31:01;100600.59;;;22.34;87.72
28004;BME280;15330;51.234;6.754;2023-09-12T05:33:27;100607.38;;;22.49;87.33
28004;BME280;15330;51.234;6.754;2023-09-12T05:35:53;100618.34;;;22.54;87.24
28004;BME280;15330;51.234;6.754;2023-09-12T05:38:18;100637.25;;;22.27;88.32
28004;BME280;15330;51.234;6.754;2023-09-12T05:40:44;100620.31;;;21.85;90.57
28004;BME280;15330;51.234;6.754;2023-09-12T05:43:09;100629.81;;;21.71;92.50
28004;BME280;15330;51.234;6.754;2023-09-12T05:45:34;100640.00;;;21.75;92.83
28004;BME280;15330;51.234;6.754;2023-09-12T05:48:00;100668.63;;;21.89;92.15
28004;BME280;15330;51.234;6.754;2023-09-12T05:50:25;100728.44;;;21.61;94.23
28004;BME280;15330;51.234;6.754;2023-09-12T05:52:51;100770.66;;;21.17;97.68
28004;BME280;15330;51.234;6.754;2023-09-12T05:55:16;100759.66;;;20.82;100.00
28004;BME280;15330;51.234;6.754;2023-09-12T05:57:42;100762.16;;;20.54;100.00
28004;BME280;15330;51.234;6.754;2023-09-12T06:00:09;100713.56;;;20.27;100.00
28004;BME280;15330;51.234;6.754;2023-09-12T06:02:40;100658.34;;;20.15;100.00
28004;BME280;15330;51.234;6.754;2023-09-12T06:05:07;100660.41;;;20.49;100.00
28004;BME280;15330;51.234;6.754;2023-09-12T06:07:33;100643.38;;;20.12;100.00
28004;BME280;15330;51.234;6.754;2023-09-12T06:09:58;100613.72;;;20.11;100.00
28004;BME280;15330;51.234;6.754;2023-09-12T06:12:23;100589.34;;;20.34;100.00
28004;BME280;15330;51.234;6.754;2023-09-12T06:14:51;100567.91;;;20.14;100.00
28004;BME280;15330;51.234;6.754;2023-09-12T06:17:16;100574.69;;;20.24;100.00
28004;BME280;15330;51.234;6.754;2023-09-12T06:19:42;100615.19;;;20.67;100.00
28004;BME280;15330;51.234;6.754;2023-09-12T06:22:07;100636.03;;;20.96;100.00
28004;BME280;15330;51.234;6.754;2023-09-12T06:24:32;100643.34;;;20.72;100.00
28004;BME280;15330;51.234;6.754;2023-09-12T06:26:58;100659.69;;;20.96;100.00
28004;BME280;15330;51.234;6.754;2023-09-12T06:29:23;100654.84;;;20.86;100.00
28004;BME280;15330;51.234;6.754;2023-09-12T06:31:48;100639.91;;;20.77;100.00
28004;BME280;15330;51.234;6.754;2023-09-12T06:34:14;100648.41;;;20.69;100.00
28004;BME280;15330;51.234;6.754;2023-09-12T06:36:39;100651.41;;;20.19;100.00
28004;BME280;15330;51.234;6.754;2023-09-12T06:39:08;100627.94;;;19.76;100.00
28004;BME280;15330;51.234;6.754;2023-09-12T06:41:33;100611.00;;;20.11;100.00
28004;BME280;15330;51.234;6.754;2023-09-12T06:43:58;100608.91;;;20.25;100.00
28004;BME280;15330;51.234;6.754;2023-09-12T06:46:24;100607.75;;;20.62;100.00
28004;BME280;15330;51.234;6.754;2023-09-12T06:48:50;100592.88;;;21.00;100.00
28004;BME280;15330;51.234;6.754;2023-09-12T06:51:16;100604.47;;;21.18;100.00
28004;BME280;15330;51.234;6.754;2023-09-12T06:53:42;100622.44;;;21.19;100.00
28004;BME280;15330;51.234;6.754;2023-09-12T06:56:07;100624.09;;;21.32;100.00
28004;BME280;15330;51.234;6.754;2023-09-12T06:58:33;100627.28;;;21.41;100.00
28004;BME280;15330;51.234;6.754;2023-09-12T07:01:05;100619.56;;;21.61;100.00
28004;BME280;15330;51.234;6.754;2023-09-12T07:03:32;100623.06;;;21.73;100.00
28004;BME280;15330;51.234;6.754;2023-09-12T07:05:57;100621.94;;;21.69;100.00
28004;BME280;15330;51.234;6.754;2023-09-12T07:08:22;100619.53;;;21.73;100.00
28004;BME280;15330;51.234;6.754;2023-09-12T07:10:48;100623.16;;;21.90;100.00
28004;BME280;15330;51.234;6.754;2023-09-12T07:13:13;100629.00;;;21.70;100.00
28004;BME280;15330;51.234;6.754;2023-09-12T07:15:39;100626.44;;;21.92;100.00
28004;BME280;15330;51.234;6.754;2023-09-12T07:18:04;100614.41;;;22.00;100.00
28004;BME280;15330;51.234;6.754;2023-09-12T07:20:32;100613.31;;;22.01;100.00
28004;BME280;15330;51.234;6.754;2023-09-12T07:22:57;100614.00;;;22.08;98.69
28004;BME280;15330;51.234;6.754;2023-09-12T07:25:22;100617.88;;;22.40;100.00
28004;BME280;15330;51.234;6.754;2023-09-12T07:27:49;100614.97;;;22.63;98.60
28004;BME280;15330;51.234;6.754;2023-09-12T07:30:15;100608.22;;;22.99;98.52
28004;BME280;15330;51.234;6.754;2023-09-12T07:32:41;100603.91;;;23.20;94.15
28004;BME280;15330;51.234;6.754;2023-09-12T07:35:06;100604.16;;;23.19;95.08
28004;BME280;15330;51.234;6.754;2023-09-12T07:37:32;100594.25;;;22.46;95.03
28004;BME280;15330;51.234;6.754;2023-09-12T07:39:57;100604.66;;;21.52;99.00
28004;BME280;15330;51.234;6.754;2023-09-12T07:42:23;100599.03;;;22.55;97.24
28004;BME280;15330;51.234;6.754;2023-09-12T07:44:49;100610.28;;;22.42;94.62
28004;BME280;15330;51.234;6.754;2023-09-12T07:47:14;100607.19;;;22.84;93.97
28004;BME280;15330;51.234;6.754;2023-09-12T07:49:40;100622.38;;;22.80;92.38
28004;BME280;15330;51.234;6.754;2023-09-12T07:52:05;100622.06;;;23.70;93.04
28004;BME280;15330;51.234;6.754;2023-09-12T07:54:31;100625.50;;;23.05;90.81
28004;BME280;15330;51.234;6.754;2023-09-12T07:56:56;100623.41;;;23.29;90.58
28004;BME280;15330;51.234;6.754;2023-09-12T07:59:22;100627.53;;;22.64;91.96
28004;BME280;15330;51.234;6.754;2023-09-12T08:01:47;100624.22;;;22.01;92.65
28004;BME280;15330;51.234;6.754;2023-09-12T08:04:13;100621.72;;;22.27;92.93
28004;BME280;15330;51.234;6.754;2023-09-12T08:06:40;100628.91;;;22.79;90.48
28004;BME280;15330;51.234;6.754;2023-09-12T08:09:06;100625.09;;;22.63;91.36
28004;BME280;15330;51.234;6.754;2023-09-12T08:11:31;100632.34;;;23.08;89.64
28004;BME280;15330;51.234;6.754;2023-09-12T08:13:57;100627.03;;;23.73;90.47
28004;BME280;15330;51.234;6.754;2023-09-12T08:16:22;100609.44;;;23.47;83.23
28004;BME280;15330;51.234;6.754;2023-09-12T08:18:48;100613.69;;;23.55;85.28
28004;BME280;15330;51.234;6.754;2023-09-12T08:21:13;100621.63;;;24.85;79.91
28004;BME280;15330;51.234;6.754;2023-09-12T08:23:39;100617.59;;;24.93;79.81
28004;BME280;15330;51.234;6.754;2023-09-12T08:26:04;100620.94;;;25.00;78.85
28004;BME280;15330;51.234;6.754;2023-09-12T08:28:29;100623.78;;;26.81;74.70
28004;BME280;15330;51.234;6.754;2023-09-12T08:30:55;100633.44;;;27.93;66.99
28004;BME280;15330;51.234;6.754;2023-09-12T08:33:20;100636.00;;;28.34;66.08
28004;BME280;15330;51.234;6.754;2023-09-12T08:35:46;100642.34;;;29.02;65.63
28004;BME280;15330;51.234;6.754;2023-09-12T08:38:11;100646.94;;;29.88;61.37
28004;BME280;15330;51.234;6.754;2023-09-12T08:40:37;100650.69;;;30.59;59.27
28004;BME280;15330;51.234;6.754;2023-09-12T08:43:03;100656.13;;;31.43;54.80
28004;BME280;15330;51.234;6.754;2023-09-12T08:45:29;100657.16;;;32.01;50.21
28004;BME280;15330;51.234;6.754;2023-09-12T08:47:57;100671.19;;;32.19;50.59
28004;BME280;15330;51.234;6.754;2023-09-12T08:50:23;100679.25;;;31.00;49.37
28004;BME280;15330;51.234;6.754;2023-09-12T08:52:50;100690.59;;;33.75;47.17
28004;BME280;15330;51.234;6.754;2023-09-12T08:55:15;100679.22;;;34.76;43.29
28004;BME280;15330;51.234;6.754;2023-09-12T08:57:42;100689.94;;;34.69;41.58
28004;BME280;15330;51.234;6.754;2023-09-12T09:00:09;100703.16;;;36.38;38.72
28004;BME280;15330;51.234;6.754;2023-09-12T09:02:36;100710.94;;;37.07;38.68
28004;BME280;15330;51.234;6.754;2023-09-12T09:05:04;100709.47;;;38.52;36.31
28004;BME280;15330;51.234;6.754;2023-09-12T09:07:41;100714.66;;;38.66;34.92
28004;BME280;15330;51.234;6.754;2023-09-12T09:10:09;100730.06;;;38.87;34.39
28004;BME280;15330;51.234;6.754;2023-09-12T09:12:35;100735.31;;;38.61;34.69
28004;BME280;15330;51.234;6.754;2023-09-12T09:15:23;100730.50;;;36.86;37.36
28004;BME280;15330;51.234;6.754;2023-09-12T09:17:50;100736.75;;;38.31;34.43
28004;BME280;15330;51.234;6.754;2023-09-12T09:20:27;100728.44;;;38.99;33.70
28004;BME280;15330;51.234;6.754;2023-09-12T09:23:11;100729.88;;;38.28;33.83
28004;BME280;15330;51.234;6.754;2023-09-12T09:25:41;100711.66;;;38.99;33.51
28004;BME280;15330;51.234;6.754;2023-09-12T09:28:20;100718.00;;;38.31;35.73
28004;BME280;15330;51.234;6.754;2023-09-12T09:30:47;100720.56;;;41.19;30.82
28004;BME280;15330;51.234;6.754;2023-09-12T09:33:15;100716.25;;;37.66;34.33
28004;BME280;15330;51.234;6.754;2023-09-12T09:35:46;100717.16;;;39.70;33.42
28004;BME280;15330;51.234;6.754;2023-09-12T09:38:11;100720.31;;;42.23;29.50
28004;BME280;15330;51.234;6.754;2023-09-12T09:40:42;100710.47;;;43.33;28.39
28004;BME280;15330;51.234;6.754;2023-09-12T09:43:08;100707.31;;;43.41;27.38
28004;BME280;15330;51.234;6.754;2023-09-12T09:45:42;100710.06;;;41.16;31.00
28004;BME280;15330;51.234;6.754;2023-09-12T09:48:09;100713.72;;;41.39;29.60
28004;BME280;15330;51.234;6.754;2023-09-12T09:50:35;100700.44;;;38.18;31.71
28004;BME280;15330;51.234;6.754;2023-09-12T09:53:02;100690.28;;;36.54;34.40
28004;BME280;15330;51.234;6.754;2023-09-12T09:55:30;100691.16;;;38.54;32.39
28004;BME280;15330;51.234;6.754;2023-09-12T09:57:55;100697.88;;;41.73;27.94
28004;BME280;15330;51.234;6.754;2023-09-12T10:00:22;100700.50;;;41.63;28.54
28004;BME280;15330;51.234;6.754;2023-09-12T10:02:49;100693.47;;;39.36;31.07
28004;BME280;15330;51.234;6.754;2023-09-12T10:05:16;100697.09;;;38.93;30.55
28004;BME280;15330;51.234;6.754;2023-09-12T10:07:47;100699.13;;;38.28;32.30
28004;BME280;15330;51.234;6.754;2023-09-12T10:10:14;100695.84;;;38.38;31.27
28004;BME280;15330;51.234;6.754;2023-09-12T10:12:49;100689.56;;;33.31;39.63
28004;BME280;15330;51.234;6.754;2023-09-12T10:15:18;100679.00;;;30.64;45.05
28004;BME280;15330;51.234;6.754;2023-09-12T10:17:46;100680.28;;;31.37;43.68
28004;BME280;15330;51.234;6.754;2023-09-12T10:20:16;100681.88;;;33.06;41.37
28004;BME280;15330;51.234;6.754;2023-09-12T10:23:11;100668.75;;;32.17;42.48
28004;BME280;15330;51.234;6.754;2023-09-12T10:25:40;100687.22;;;32.58;43.22
28004;BME280;15330;51.234;6.754;2023-09-12T10:28:08;100680.06;;;33.94;41.31
28004;BME280;15330;51.234;6.754;2023-09-12T10:30:35;100682.72;;;33.68;41.81
28004;BME280;15330;51.234;6.754;2023-09-12T10:33:04;100671.94;;;31.10;45.02
28004;BME280;15330;51.234;6.754;2023-09-12T10:35:31;100673.66;;;29.69;48.11
28004;BME280;15330;51.234;6.754;2023-09-12T10:38:01;100664.06;;;28.31;54.66
28004;BME280;15330;51.234;6.754;2023-09-12T10:40:29;100671.69;;;29.93;51.39
28004;BME280;15330;51.234;6.754;2023-09-12T10:42:56;100667.19;;;30.03;53.14
28004;BME280;15330;51.234;6.754;2023-09-12T10:45:22;100664.13;;;30.23;52.22
28004;BME280;15330;51.234;6.754;2023-09-12T10:47:48;100671.84;;;30.45;51.54
28004;BME280;15330;51.234;6.754;2023-09-12T10:50:14;100672.34;;;29.85;53.09
28004;BME280;15330;51.234;6.754;2023-09-12T10:52:39;100669.28;;;30.86;51.51
28004;BME280;15330;51.234;6.754;2023-09-12T10:55:07;100659.91;;;30.68;50.22
28004;BME280;15330;51.234;6.754;2023-09-12T10:57:33;100650.41;;;30.74;51.73
28004;BME280;15330;51.234;6.754;2023-09-12T11:02:31;100650.06;;;29.58;52.70
28004;BME280;15330;51.234;6.754;2023-09-12T11:04:57;100647.44;;;29.96;52.08
28004;BME280;15330;51.234;6.754;2023-09-12T11:07:44;100646.75;;;28.25;56.20
28004;BME280;15330;51.234;6.754;2023-09-12T11:12:42;100650.59;;;28.68;55.69
28004;BME280;15330;51.234;6.754;2023-09-12T11:15:08;100652.94;;;28.51;55.87
28004;BME280;15330;51.234;6.754;2023-09-12T11:17:39;100646.41;;;29.63;54.39
28004;BME280;15330;51.234;6.754;2023-09-12T11:20:05;100652.22;;;29.61;54.01
28004;BME280;15330;51.234;6.754;2023-09-12T11:22:44;100667.00;;;30.37;52.19
28004;BME280;15330;51.234;6.754;2023-09-12T11:25:21;100663.50;;;30.69;51.69
28004;BME280;15330;51.234;6.754;2023-09-12T11:30:19;100664.22;;;31.07;51.02
28004;BME280;15330;51.234;6.754;2023-09-12T11:32:47;100660.28;;;31.13;50.65
28004;BME280;15330;51.234;6.754;2023-09-12T11:35:14;100663.94;;;30.19;51.69
28004;BME280;15330;51.234;6.754;2023-09-12T11:37:39;100669.63;;;29.80;52.94
28004;BME280;15330;51.234;6.754;2023-09-12T11:42:41;100678.22;;;29.26;51.37
28004;BME280;15330;51.234;6.754;2023-09-12T11:45:17;100670.28;;;30.39;49.78
28004;BME280;15330;51.234;6.754;2023-09-12T11:47:44;100671.97;;;30.35;50.30
28004;BME280;15330;51.234;6.754;2023-09-12T11:50:30;100664.66;;;30.25;49.67
28004;BME280;15330;51.234;6.754;2023-09-12T11:53:08;100661.16;;;30.76;47.62
28004;BME280;15330;51.234;6.754;2023-09-12T11:55:35;100655.22;;;30.69;48.67
28004;BME280;15330;51.234;6.754;2023-09-12T11:58:02;100658.78;;;30.69;50.21
28004;BME280;15330;51.234;6.754;2023-09-12T12:00:28;100665.63;;;30.90;48.93
28004;BME280;15330;51.234;6.754;2023-09-12T12:02:54;100666.63;;;29.58;51.42
28004;BME280;15330;51.234;6.754;2023-09-12T12:05:21;100665.84;;;29.52;53.17
28004;BME280;15330;51.234;6.754;2023-09-12T12:07:48;100670.66;;;30.51;51.87
28004;BME280;15330;51.234;6.754;2023-09-12T12:10:14;100660.44;;;29.90;50.48
28004;BME280;15330;51.234;6.754;2023-09-12T12:12:39;100661.91;;;30.25;50.59
28004;BME280;15330;51.234;6.754;2023-09-12T12:15:09;100660.22;;;30.67;49.09
28004;BME280;15330;51.234;6.754;2023-09-12T12:17:36;100652.69;;;30.72;49.96
28004;BME280;15330;51.234;6.754;2023-09-12T12:20:02;100651.84;;;31.04;49.24
28004;BME280;15330;51.234;6.754;2023-09-12T12:22:35;100650.34;;;30.04;49.19
28004;BME280;15330;51.234;6.754;2023-09-12T12:25:08;100648.00;;;30.86;48.16
28004;BME280;15330;51.234;6.754;2023-09-12T12:27:38;100634.41;;;29.53;49.06
28004;BME280;15330;51.234;6.754;2023-09-12T12:30:09;100632.47;;;29.78;48.98
28004;BME280;15330;51.234;6.754;2023-09-12T12:32:46;100632.16;;;30.41;48.35
28004;BME280;15330;51.234;6.754;2023-09-12T12:35:19;100630.44;;;30.96;47.31
28004;BME280;15330;51.234;6.754;2023-09-12T12:37:51;100625.13;;;30.48;47.06
28004;BME280;15330;51.234;6.754;2023-09-12T12:40:17;100626.13;;;30.57;46.95
28004;BME280;15330;51.234;6.754;2023-09-12T12:42:43;100615.81;;;29.64;47.48
28004;BME280;15330;51.234;6.754;2023-09-12T12:45:18;100620.28;;;29.31;47.90
28004;BME280;15330;51.234;6.754;2023-09-12T12:47:44;100614.75;;;29.60;48.31
28004;BME280;15330;51.234;6.754;2023-09-12T12:50:17;100612.97;;;30.12;47.05
28004;BME280;15330;51.234;6.754;2023-09-12T12:52:47;100615.63;;;29.79;47.28
28004;BME280;15330;51.234;6.754;2023-09-12T12:55:13;100608.25;;;29.51;46.97
28004;BME280;15330;51.234;6.754;2023-09-12T12:57:40;100605.88;;;29.63;47.22
28004;BME280;15330;51.234;6.754;2023-09-12T13:00:11;100597.34;;;30.07;45.76
28004;BME280;15330;51.234;6.754;2023-09-12T13:02:37;100603.53;;;30.18;45.10